Time;durP1;ratioP1;P1;durP2;ratioP2;P2;SDS_P1;SDS_P2;PMS_P1;PMS_P2;Temp;Humidity;BMP_temperature;BMP_pressure;BME280_temperature;BME280_humidity;BME280_pressure;Samples;Min_cycle;Max_cycle;Signal;HPM_P1;HPM_P2
2021/11/18 00:03:22;;;;;;;;;;;5.60;99.90;;;4.45;99.77;96675.94;10463946;28;1809;-76
2021/11/18 00:08:25;;;;;;;;;;;5.60;99.90;;;4.51;99.72;96653.78;10455053;28;1968;-78
2021/11/18 00:13:28;;;;;;;;;;;5.60;99.90;;;4.54;99.47;96661.38;10449970;28;1885;-77
2021/11/18 00:18:31;;;;;;;;;;;5.60;99.90;;;4.52;99.43;96668.75;10447703;28;1976;-78
2021/11/18 00:23:34;;;;;;;;;;;5.60;99.90;;;4.52;99.71;96666.09;10453357;28;1892;-77
2021/11/18 00:28:37;;;;;;;;;;;5.60;99.90;;;4.54;99.17;96666.69;10450099;28;1910;-77
2021/11/18 00:33:40;;;;;;;;;;;5.60;99.90;;;4.56;99.52;96668.09;10446029;28;1846;-78
2021/11/18 00:38:43;;;;;;;;;;;5.70;99.90;;;4.50;99.22;96670.81;10450644;28;1785;-78
2021/11/18 00:43:46;;;;;;;;;;;5.60;99.90;;;4.47;99.28;96671.25;10461096;28;1937;-77
2021/11/18 00:48:49;;;;;;;;;;;5.60;99.90;;;4.43;99.72;96672.69;10456026;28;1967;-77
2021/11/18 00:53:52;;;;;;;;;;;5.50;99.90;;;4.37;100.00;96686.84;10453578;28;1949;-77
2021/11/18 00:58:54;;;;;;;;;;;5.50;99.90;;;4.44;100.00;96677.78;10449573;28;1860;-78
2021/11/18 01:03:57;;;;;;;;;;;5.50;99.90;;;4.43;100.00;96688.66;10450959;28;1920;-77
2021/11/18 01:09:00;;;;;;;;;;;5.50;99.90;;;4.47;99.25;96681.88;10450678;28;1932;-76
2021/11/18 01:14:03;;;;;;;;;;;5.50;99.90;;;4.41;100.00;96680.06;10448628;28;1838;-76
2021/11/18 01:19:06;;;;;;;;;;;5.50;99.90;;;4.43;100.00;96667.34;10450102;28;1804;-76
2021/11/18 01:24:09;;;;;;;;;;;5.50;99.90;;;4.40;100.00;96665.94;10466887;28;1843;-77
2021/11/18 01:29:12;;;;;;;;;;;5.50;99.90;;;4.41;100.00;96672.91;10468441;28;1972;-77
2021/11/18 01:34:15;;;;;;;;;;;5.50;99.90;;;4.48;100.00;96672.88;10468252;28;1875;-76
2021/11/18 01:39:18;;;;;;;;;;;5.50;99.90;;;4.49;99.73;96677.16;10461987;28;2002;-77
2021/11/18 01:44:21;;;;;;;;;;;5.60;99.90;;;4.52;99.33;96679.41;10461735;28;2069;-76
2021/11/18 01:49:24;;;;;;;;;;;5.60;99.90;;;4.48;100.00;96678.19;10467188;28;2040;-76
2021/11/18 01:54:26;;;;;;;;;;;5.50;99.90;;;4.39;100.00;96680.28;10451523;28;2048;-76
2021/11/18 01:59:29;;;;;;;;;;;5.50;99.90;;;4.46;99.21;96670.44;10445169;28;2025;-76
2021/11/18 02:04:32;;;;;;;;;;;5.60;99.90;;;4.51;100.00;96677.75;10446794;28;2102;-78
2021/11/18 02:09:35;;;;;;;;;;;5.60;99.90;;;4.56;99.90;96681.41;10449596;28;1974;-77
2021/11/18 02:14:38;;;;;;;;;;;5.60;99.90;;;4.54;99.08;96685.31;10448210;28;1928;-76
2021/11/18 02:19:41;;;;;;;;;;;5.70;99.90;;;4.61;99.24;96684.25;10448328;28;2053;-77
2021/11/18 02:25:04;;;;;;;;;;;5.60;99.90;;;4.59;98.75;96669.53;10469136;28;2167;-77
2021/11/18 02:30:27;;;;;;;;;;;5.60;99.90;;;4.63;99.82;96662.72;10468017;28;2224;-77
2021/11/18 02:35:50;;;;;;;;;;;5.60;99.90;;;4.67;99.27;96661.28;10476091;28;1924;-76
2021/11/18 02:41:12;;;;;;;;;;;5.70;99.90;;;4.69;98.50;96672.53;10449398;28;2253;-76
2021/11/18 02:46:20;;;;;;;;;;;5.70;99.90;;;4.72;98.12;96671.31;10442504;28;1941;-76
2021/11/18 02:51:23;;;;;;;;;;;5.70;99.90;;;4.67;98.24;96682.59;10447868;28;2030;-76
2021/11/18 02:56:28;;;;;;;;;;;5.80;99.90;;;4.70;98.39;96671.50;10449422;28;1989;-77
2021/11/18 03:01:31;;;;;;;;;;;5.70;99.90;;;4.70;98.01;96676.81;10449867;28;2098;-78
2021/11/18 03:06:34;;;;;;;;;;;5.80;99.90;;;4.72;98.04;96681.97;10449058;28;2041;-77
2021/11/18 03:11:37;;;;;;;;;;;5.80;99.90;;;4.69;98.48;96679.72;10446107;28;2135;-77
2021/11/18 03:16:40;;;;;;;;;;;5.70;99.90;;;4.73;98.13;96686.25;10459662;28;2085;-77
2021/11/18 03:21:43;;;;;;;;;;;5.70;99.90;;;4.79;98.01;96688.06;10443026;28;2011;-76
2021/11/18 03:26:45;;;;;;;;;;;5.80;99.90;;;4.83;97.78;96692.72;10457172;28;2069;-77
2021/11/18 03:31:48;;;;;;;;;;;5.90;99.90;;;4.84;97.12;96705.03;10452562;28;2036;-77
2021/11/18 03:36:52;;;;;;;;;;;5.90;99.90;;;4.79;97.66;96707.50;10453443;28;2077;-77
2021/11/18 03:41:55;;;;;;;;;;;5.80;99.90;;;4.77;98.04;96709.59;10450707;28;1966;-77
2021/11/18 03:46:58;;;;;;;;;;;5.80;99.90;;;4.76;98.00;96718.59;10449992;28;2429;-76
2021/11/18 03:52:01;;;;;;;;;;;5.80;99.90;;;4.76;98.38;96720.44;10452289;28;2014;-75
2021/11/18 03:57:04;;;;;;;;;;;5.80;99.90;;;4.75;98.55;96727.59;10448755;28;2068;-76
2021/11/18 04:02:06;;;;;;;;;;;5.80;99.90;;;4.69;99.17;96725.78;10448237;28;1995;-75
2021/11/18 04:07:10;;;;;;;;;;;5.80;99.90;;;4.72;98.73;96727.22;10450223;28;2101;-75
2021/11/18 04:12:13;;;;;;;;;;;5.80;99.90;;;4.72;99.03;96725.38;10449828;28;2010;-76
2021/11/18 04:17:35;;;;;;;;;;;5.80;99.90;;;4.67;98.70;96722.53;10451229;28;1920;-75
2021/11/18 04:22:58;;;;;;;;;;;5.80;99.90;;;4.78;98.77;96721.88;10447867;28;1959;-76
2021/11/18 04:28:01;;;;;;;;;;;5.80;99.90;;;4.78;98.85;96726.38;10451118;28;2455;-78
2021/11/18 04:33:04;;;;;;;;;;;5.80;99.90;;;4.70;99.69;96730.09;10448339;28;1975;-76
2021/11/18 04:38:27;;;;;;;;;;;5.80;99.90;;;4.73;98.98;96726.19;10449185;28;2013;-76
2021/11/18 04:43:50;;;;;;;;;;;5.80;99.90;;;4.70;98.91;96735.41;10447363;28;2018;-76
2021/11/18 04:49:13;;;;;;;;;;;5.80;99.90;;;4.75;98.43;96742.78;10449859;28;2072;-74
2021/11/18 04:54:36;;;;;;;;;;;5.80;99.90;;;4.73;98.42;96742.19;10450806;28;2096;-76
2021/11/18 04:59:58;;;;;;;;;;;5.80;99.90;;;4.79;98.19;96742.16;10447474;28;2068;-77
2021/11/18 05:05:01;;;;;;;;;;;5.80;99.90;;;4.83;97.93;96759.31;10451974;28;2087;-76
2021/11/18 05:10:05;;;;;;;;;;;5.90;99.90;;;4.82;97.94;96771.00;10451356;28;2478;-75
2021/11/18 05:15:07;;;;;;;;;;;5.90;99.90;;;4.79;97.37;96760.78;10454126;28;1999;-75
2021/11/18 05:20:10;;;;;;;;;;;5.80;99.90;;;4.68;99.14;96764.13;10445621;28;1966;-76
2021/11/18 05:25:13;;;;;;;;;;;5.80;99.90;;;4.70;98.97;96766.56;10442154;28;2050;-75
2021/11/18 05:30:17;;;;;;;;;;;5.80;99.90;;;4.77;98.99;96773.53;10443050;28;2130;-76
2021/11/18 05:35:20;;;;;;;;;;;5.80;99.90;;;4.77;98.82;96773.53;10447606;28;2037;-76
2021/11/18 05:40:23;;;;;;;;;;;5.80;99.90;;;4.79;98.43;96795.41;10444045;28;2121;-77
2021/11/18 05:45:26;;;;;;;;;;;5.90;99.90;;;4.78;98.19;96801.78;10440008;28;2009;-77
2021/11/18 05:50:29;;;;;;;;;;;5.80;99.90;;;4.77;98.38;96786.00;10454520;28;2000;-76
2021/11/18 05:55:32;;;;;;;;;;;5.80;99.90;;;4.71;98.62;96773.53;10440812;28;2096;-76
2021/11/18 06:00:35;;;;;;;;;;;5.80;99.90;;;4.82;99.33;96794.97;10448675;28;2065;-76
2021/11/18 06:05:38;;;;;;;;;;;5.90;99.90;;;4.86;99.40;96809.53;10454923;28;2231;-77
2021/11/18 06:10:41;;;;;;;;;;;5.90;99.90;;;4.81;100.00;96814.66;10453740;28;2080;-76
2021/11/18 06:15:44;;;;;;;;;;;5.80;99.90;;;4.75;100.00;96812.84;10448827;28;2072;-76
2021/11/18 06:20:46;;;;;;;;;;;5.90;99.90;;;4.71;100.00;96824.97;10444790;28;2188;-77
2021/11/18 06:25:49;;;;;;;;;;;5.90;99.90;;;4.67;100.00;96826.41;10448023;28;2025;-77
2021/11/18 06:30:52;;;;;;;;;;;5.80;99.90;;;4.63;100.00;96829.69;10437283;28;1957;-77
2021/11/18 06:35:55;;;;;;;;;;;5.80;99.90;;;4.54;100.00;96858.41;10454740;28;1942;-75
2021/11/18 06:41:15;;;;;;;;;;;5.70;99.90;;;4.63;100.00;96851.00;10448074;28;1651;-77
2021/11/18 06:46:18;;;;;;;;;;;5.70;99.90;;;4.65;100.00;96859.63;10445211;28;1864;-77
2021/11/18 06:51:22;;;;;;;;;;;5.70;99.90;;;4.65;100.00;96864.94;10460775;28;2251;-76
2021/11/18 06:56:25;;;;;;;;;;;5.80;99.90;;;4.62;100.00;96871.50;10454537;28;1835;-77
2021/11/18 07:01:28;;;;;;;;;;;5.70;99.90;;;4.63;100.00;96873.13;10450766;28;1756;-78
2021/11/18 07:06:33;;;;;;;;;;;5.70;99.90;;;4.55;100.00;96887.47;10450915;28;1858;-77
2021/11/18 07:11:37;;;;;;;;;;;5.70;99.90;;;4.60;100.00;96873.56;10454380;28;1910;-77
2021/11/18 07:16:39;;;;;;;;;;;5.70;99.90;;;4.67;100.00;96877.00;10456834;28;1731;-78
2021/11/18 07:21:42;;;;;;;;;;;5.70;99.90;;;4.76;100.00;96869.59;10430431;28;1905;-75
2021/11/18 07:26:45;;;;;;;;;;;5.80;99.90;;;4.83;100.00;96873.88;10441097;28;1953;-73
2021/11/18 07:31:48;;;;;;;;;;;5.90;99.90;;;5.03;100.00;96891.66;10444470;28;1906;-75
2021/11/18 07:36:51;;;;;;;;;;;5.90;99.90;;;5.09;100.00;96888.13;10448571;28;2113;-79
2021/11/18 07:41:54;;;;;;;;;;;6.00;99.90;;;5.07;100.00;96900.84;10444415;28;1913;-79
2021/11/18 07:46:58;;;;;;;;;;;6.10;99.90;;;5.06;100.00;96912.53;10438764;28;2124;-76
2021/11/18 07:52:01;;;;;;;;;;;6.10;99.90;;;5.25;100.00;96916.16;10446809;28;2029;-74
2021/11/18 07:57:04;;;;;;;;;;;6.20;99.90;;;5.16;100.00;96899.59;10439745;28;1913;-74
2021/11/18 08:02:07;;;;;;;;;;;6.20;99.90;;;5.14;100.00;96913.13;10434833;28;1926;-76
2021/11/18 08:07:10;;;;;;;;;;;6.20;99.90;;;5.07;100.00;96916.84;10438980;28;1885;-75
2021/11/18 08:12:13;;;;;;;;;;;6.20;99.90;;;5.04;100.00;96912.75;10440191;28;1975;-76
2021/11/18 08:17:16;;;;;;;;;;;6.20;99.90;;;5.17;100.00;96911.91;10429924;28;1968;-75
2021/11/18 08:22:19;;;;;;;;;;;6.20;99.90;;;5.37;100.00;96914.47;10434398;28;1815;-74
2021/11/18 08:27:22;;;;;;;;;;;6.30;99.90;;;5.50;100.00;96913.59;10438539;28;1842;-75
2021/11/18 08:32:25;;;;;;;;;;;6.50;99.90;;;5.76;100.00;96910.75;10424959;28;2078;-76
2021/11/18 08:37:28;;;;;;;;;;;6.60;99.90;;;5.91;98.67;96915.81;10436153;28;2048;-76
2021/11/18 08:42:31;;;;;;;;;;;6.80;99.90;;;5.90;98.40;96911.47;10435473;28;1906;-76
2021/11/18 08:47:34;;;;;;;;;;;6.90;99.90;;;6.13;97.15;96917.09;10429680;28;2004;-73
2021/11/18 08:52:38;;;;;;;;;;;7.00;99.90;;;6.16;96.02;96926.50;10436061;28;1961;-73
2021/11/18 08:57:45;;;;;;;;;;;7.10;99.90;;;6.28;96.09;96922.09;10437101;28;1877;-73
2021/11/18 09:02:48;;;;;;;;;;;7.20;99.90;;;6.40;94.31;96930.22;10434465;28;1839;-76
2021/11/18 09:07:51;;;;;;;;;;;7.30;99.90;;;6.70;93.00;96925.03;10433901;28;1877;-76
2021/11/18 09:12:54;;;;;;;;;;;7.40;99.90;;;6.75;89.63;96933.19;10435051;28;1902;-75
2021/11/18 09:17:58;;;;;;;;;;;6.90;99.90;;;6.93;89.15;96933.19;10434499;28;1916;-75
2021/11/18 09:23:01;;;;;;;;;;;7.60;99.90;;;7.19;87.25;96948.16;10432231;28;1939;-75
2021/11/18 09:28:04;;;;;;;;;;;7.80;99.90;;;7.51;86.85;96945.31;10438146;28;1940;-74
2021/11/18 09:33:07;;;;;;;;;;;8.00;99.90;;;7.27;85.76;96944.34;10426583;28;1977;-76
2021/11/18 09:38:10;;;;;;;;;;;8.00;99.90;;;7.58;83.27;96946.84;10428755;28;1869;-75
2021/11/18 09:43:13;;;;;;;;;;;8.30;99.90;;;7.42;85.57;96950.13;10429869;28;1926;-75
2021/11/18 09:48:16;;;;;;;;;;;8.30;99.90;;;7.53;83.83;96952.06;10432006;28;1812;-74
2021/11/18 09:53:19;;;;;;;;;;;8.30;99.90;;;7.58;83.41;96967.44;10431717;28;1979;-75
2021/11/18 09:58:22;;;;;;;;;;;8.30;99.90;;;7.92;82.50;96944.53;10432712;28;1875;-73
2021/11/18 10:03:25;;;;;;;;;;;8.50;99.90;;;8.17;81.96;96939.00;10419885;28;2002;-73
2021/11/18 10:08:28;;;;;;;;;;;8.80;99.90;;;8.23;80.73;96939.97;10427171;28;2259;-73
2021/11/18 10:13:31;;;;;;;;;;;9.00;99.90;;;8.70;78.82;96937.34;10430554;28;1989;-73
2021/11/18 10:18:34;;;;;;;;;;;9.20;99.90;;;8.77;78.34;96946.09;10430676;28;1897;-73
2021/11/18 10:23:37;;;;;;;;;;;9.40;99.90;;;8.50;78.54;96941.19;10444264;28;1917;-73
2021/11/18 10:28:39;;;;;;;;;;;9.40;99.90;;;8.77;76.32;96922.78;10438600;28;2052;-72
2021/11/18 10:33:42;;;;;;;;;;;9.50;99.90;;;8.71;76.25;96922.88;10442966;28;1905;-73
2021/11/18 10:38:45;;;;;;;;;;;9.60;99.90;;;8.27;77.78;96928.56;10448269;28;1990;-73
2021/11/18 10:43:48;;;;;;;;;;;9.30;99.90;;;8.18;78.64;96921.88;10453707;28;1924;-74
2021/11/18 10:48:51;;;;;;;;;;;9.20;99.90;;;8.19;78.19;96917.34;10450431;28;1819;-73
2021/11/18 10:53:54;;;;;;;;;;;9.10;99.90;;;8.23;79.73;96913.97;10452281;28;1985;-73
2021/11/18 10:58:57;;;;;;;;;;;9.10;99.90;;;8.30;77.56;96924.59;10450701;28;1831;-73
2021/11/18 11:04:00;;;;;;;;;;;9.20;99.90;;;8.37;77.32;96928.00;10450281;28;1878;-74
2021/11/18 11:09:03;;;;;;;;;;;9.30;99.90;;;8.35;77.51;96914.84;10448257;28;1849;-74
2021/11/18 11:14:06;;;;;;;;;;;9.30;99.90;;;8.48;75.86;96903.09;10455967;28;1979;-74
2021/11/18 11:19:09;;;;;;;;;;;9.30;99.90;;;8.47;76.76;96912.19;10443930;28;1921;-75
2021/11/18 11:24:12;;;;;;;;;;;9.30;99.90;;;8.31;76.22;96896.75;10450541;28;1905;-75
2021/11/18 11:29:15;;;;;;;;;;;9.30;99.90;;;8.25;75.65;96897.69;10444052;28;1916;-74
2021/11/18 11:34:18;;;;;;;;;;;9.30;99.90;;;8.28;76.05;96883.84;10445750;28;1914;-75
2021/11/18 11:39:21;;;;;;;;;;;9.30;99.90;;;8.21;74.97;96878.59;10439837;28;1941;-73
2021/11/18 11:44:26;;;;;;;;;;;9.30;99.90;;;8.50;74.36;96868.84;10434498;28;1949;-74
2021/11/18 11:49:28;;;;;;;;;;;9.40;99.90;;;8.45;73.80;96866.03;10435277;28;1910;-76
2021/11/18 11:54:31;;;;;;;;;;;9.30;99.90;;;8.39;73.82;96875.00;10429181;28;1985;-74
2021/11/18 11:59:34;;;;;;;;;;;9.30;99.90;;;8.61;73.30;96864.53;10441067;28;1912;-74
2021/11/18 12:04:37;;;;;;;;;;;9.40;99.90;;;8.74;72.89;96868.81;10438280;28;1907;-74
2021/11/18 12:09:40;;;;;;;;;;;9.50;99.90;;;8.63;72.28;96854.38;10445044;28;1986;-74
2021/11/18 12:14:43;;;;;;;;;;;9.60;99.90;;;8.54;73.10;96850.44;10444570;28;1977;-74
2021/11/18 12:19:46;;;;;;;;;;;9.50;99.90;;;8.32;73.68;96863.56;10437059;28;1810;-74
2021/11/18 12:24:49;;;;;;;;;;;9.40;99.90;;;8.24;74.45;96853.19;10442436;28;3043;-74
2021/11/18 12:29:52;;;;;;;;;;;9.40;99.90;;;8.37;74.05;96853.81;10435966;28;1942;-74
2021/11/18 12:34:54;;;;;;;;;;;9.40;99.90;;;8.16;73.70;96849.00;10442291;28;1963;-76
2021/11/18 12:39:57;;;;;;;;;;;9.20;99.90;;;8.04;74.50;96845.50;10437930;28;1898;-75
2021/11/18 12:45:00;;;;;;;;;;;9.20;99.90;;;8.01;75.06;96859.31;10446394;28;1910;-74
2021/11/18 12:50:03;;;;;;;;;;;9.10;99.90;;;8.01;75.33;96844.06;10438712;28;1901;-75
2021/11/18 12:55:07;;;;;;;;;;;9.00;99.90;;;8.24;74.79;96831.75;10436125;28;1973;-73
2021/11/18 13:00:10;;;;;;;;;;;9.10;99.90;;;8.44;73.46;96832.25;10436103;28;1897;-75
2021/11/18 13:05:13;;;;;;;;;;;9.30;99.90;;;8.23;74.91;96830.13;10441161;28;1858;-74
2021/11/18 13:10:15;;;;;;;;;;;9.30;99.90;;;8.30;75.05;96814.75;10440201;28;1901;-74
2021/11/18 13:15:18;;;;;;;;;;;9.20;99.90;;;8.28;75.18;96827.59;10435014;28;1978;-74
2021/11/18 13:20:21;;;;;;;;;;;9.30;99.90;;;7.70;76.60;96825.63;10427212;28;1921;-71
2021/11/18 13:25:24;;;;;;;;;;;9.10;99.90;;;7.68;76.88;96814.34;10435940;28;1934;-71
2021/11/18 13:30:30;;;;;;;;;;;8.80;99.90;;;7.63;77.90;96824.91;10430260;28;1952;-70
2021/11/18 13:35:33;;;;;;;;;;;8.70;99.90;;;7.64;77.88;96826.56;10436579;28;1933;-70
2021/11/18 13:40:36;;;;;;;;;;;8.70;99.90;;;7.57;78.05;96816.78;10441064;28;2101;-71
2021/11/18 13:45:40;;;;;;;;;;;8.70;99.90;;;7.86;77.42;96803.56;10439699;28;1859;-71
2021/11/18 13:50:44;;;;;;;;;;;8.80;99.90;;;8.07;76.01;96805.66;10439730;28;1916;-70
2021/11/18 13:55:47;;;;;;;;;;;9.00;99.90;;;8.08;76.58;96801.16;10438796;28;1936;-72
2021/11/18 14:00:49;;;;;;;;;;;9.00;99.90;;;8.00;77.09;96807.63;10430757;28;1998;-72
2021/11/18 14:05:52;;;;;;;;;;;9.10;99.90;;;7.71;78.83;96809.38;10432920;28;2440;-72
2021/11/18 14:10:55;;;;;;;;;;;8.90;99.90;;;7.65;78.51;96818.31;10436667;28;1910;-69
2021/11/18 14:15:58;;;;;;;;;;;8.80;99.90;;;7.59;78.57;96825.38;10443298;28;1939;-71
2021/11/18 14:21:01;;;;;;;;;;;8.80;99.90;;;7.45;79.72;96829.31;10437070;28;1877;-73
2021/11/18 14:26:04;;;;;;;;;;;8.70;99.90;;;7.45;79.79;96837.34;10437066;28;1957;-74
2021/11/18 14:31:07;;;;;;;;;;;8.60;99.90;;;7.23;83.01;96836.19;10431170;28;1947;-75
2021/11/18 14:36:10;;;;;;;;;;;8.50;99.90;;;7.06;83.85;96835.97;10442002;28;1875;-75
2021/11/18 14:41:13;;;;;;;;;;;8.40;99.90;;;6.91;85.76;96839.06;10441871;28;1728;-75
2021/11/18 14:46:16;;;;;;;;;;;8.20;99.90;;;6.78;85.15;96841.88;10437343;28;1897;-74
2021/11/18 14:51:19;;;;;;;;;;;8.20;99.90;;;6.67;87.57;96837.28;10435834;28;1910;-75
2021/11/18 14:56:22;;;;;;;;;;;8.00;99.90;;;6.62;86.88;96824.59;10431353;28;1917;-75
2021/11/18 15:01:25;;;;;;;;;;;8.00;99.90;;;6.43;88.50;96814.97;10436686;28;1949;-75
2021/11/18 15:06:28;;;;;;;;;;;7.90;99.90;;;6.25;89.29;96813.06;10437125;28;1846;-73
2021/11/18 15:11:31;;;;;;;;;;;7.80;99.90;;;6.11;90.77;96811.59;10445891;28;1913;-73
2021/11/18 15:16:34;;;;;;;;;;;7.70;99.90;;;6.02;92.23;96818.22;10447579;28;1906;-74
2021/11/18 15:21:36;;;;;;;;;;;7.50;99.90;;;5.88;94.03;96831.66;10444732;28;1834;-75
2021/11/18 15:26:40;;;;;;;;;;;7.40;99.90;;;5.75;95.36;96829.09;10449142;28;2038;-75
2021/11/18 15:31:43;;;;;;;;;;;7.20;99.90;;;5.56;96.77;96830.03;10440260;28;1950;-77
2021/11/18 15:36:46;;;;;;;;;;;7.10;99.90;;;5.50;98.61;96836.25;10450279;28;1909;-76
2021/11/18 15:41:51;;;;;;;;;;;6.90;99.90;;;5.33;99.22;96839.41;10462439;28;1915;-77
2021/11/18 15:46:54;;;;;;;;;;;6.80;99.90;;;5.17;100.00;96837.25;10461797;28;1993;-78
2021/11/18 15:51:58;;;;;;;;;;;6.70;99.90;;;5.19;100.00;96835.19;10473572;28;1961;-76
2021/11/18 15:57:01;;;;;;;;;;;6.60;99.90;;;5.03;100.00;96849.84;10473370;28;2303;-78
2021/11/18 16:02:04;;;;;;;;;;;6.50;99.90;;;5.00;100.00;96855.56;10466536;28;1807;-79
2021/11/18 16:07:09;;;;;;;;;;;6.40;99.90;;;4.89;100.00;96846.38;10453024;28;1819;-77
2021/11/18 16:12:12;;;;;;;;;;;6.40;99.90;;;4.76;100.00;96850.94;10456458;28;1906;-77
2021/11/18 16:17:15;;;;;;;;;;;6.30;99.90;;;4.65;100.00;96860.44;10466568;28;1931;-76
2021/11/18 16:22:18;;;;;;;;;;;6.20;99.90;;;4.52;100.00;96865.78;10449121;28;1754;-77
2021/11/18 16:27:25;;;;;;;;;;;6.10;99.90;;;4.45;100.00;96870.28;10451926;28;1893;-76
2021/11/18 16:32:28;;;;;;;;;;;5.90;99.90;;;4.48;100.00;96875.22;10452608;28;1968;-75
2021/11/18 16:37:31;;;;;;;;;;;6.00;99.90;;;4.33;100.00;96868.28;10455526;28;1768;-75
2021/11/18 16:42:34;;;;;;;;;;;5.80;99.90;;;4.29;100.00;96866.22;10452838;28;1890;-75
2021/11/18 16:47:37;;;;;;;;;;;5.80;99.90;;;4.10;100.00;96878.53;10451493;28;1858;-75
2021/11/18 16:52:39;;;;;;;;;;;5.60;99.90;;;4.01;100.00;96883.25;10447858;28;1969;-77
2021/11/18 16:57:42;;;;;;;;;;;5.50;99.90;;;3.97;100.00;96878.53;10444065;28;1894;-76
2021/11/18 17:03:04;;;;;;;;;;;5.30;99.90;;;3.93;100.00;96890.59;10442564;28;1874;-77
2021/11/18 17:08:07;;;;;;;;;;;5.30;99.90;;;3.99;100.00;96892.44;10447595;28;2402;-77
2021/11/18 17:13:10;;;;;;;;;;;5.30;99.90;;;3.92;100.00;96891.63;10456700;28;1945;-77
2021/11/18 17:18:13;;;;;;;;;;;5.30;99.90;;;3.92;100.00;96896.94;10466574;28;1700;-78
2021/11/18 17:23:17;;;;;;;;;;;5.20;99.90;;;3.87;100.00;96891.41;10471796;28;1818;-78
2021/11/18 17:28:21;;;;;;;;;;;5.30;99.90;;;3.81;100.00;96887.72;10467656;28;1762;-78
2021/11/18 17:33:24;;;;;;;;;;;5.20;99.90;;;3.71;100.00;96885.47;10474819;28;1977;-78
2021/11/18 17:38:28;;;;;;;;;;;5.20;99.90;;;3.66;100.00;96887.94;10473118;28;1714;-80
2021/11/18 17:43:32;;;;;;;;;;;5.10;99.90;;;3.49;100.00;96903.44;10462873;28;1850;-78
2021/11/18 17:48:36;;;;;;;;;;;5.00;99.90;;;3.40;100.00;96909.16;10465901;28;1925;-78
2021/11/18 17:53:43;;;;;;;;;;;5.00;99.90;;;3.34;100.00;96923.22;10470626;28;1972;-78
2021/11/18 17:58:46;;;;;;;;;;;4.90;99.90;;;3.29;100.00;96928.31;10472306;28;1877;-78
2021/11/18 18:04:09;;;;;;;;;;;4.80;99.90;;;3.31;100.00;96920.97;10473025;28;1878;-78
2021/11/18 18:09:12;;;;;;;;;;;4.70;99.90;;;3.30;100.00;96929.94;10479452;28;1812;-77
2021/11/18 18:14:15;;;;;;;;;;;4.70;99.90;;;3.29;100.00;96928.31;10491020;28;1927;-77
2021/11/18 18:19:19;;;;;;;;;;;4.70;99.90;;;3.25;100.00;96927.91;10494300;28;1677;-77
2021/11/18 18:24:22;;;;;;;;;;;4.60;99.90;;;3.23;100.00;96928.09;10489878;28;1941;-76
2021/11/18 18:29:28;;;;;;;;;;;4.60;99.90;;;3.17;100.00;96926.22;10482862;28;1806;-77
2021/11/18 18:34:33;;;;;;;;;;;4.50;99.90;;;3.16;100.00;96932.56;10468723;28;1987;-77
2021/11/18 18:39:36;;;;;;;;;;;4.50;99.90;;;3.10;100.00;96941.31;10476001;28;1846;-77
2021/11/18 18:44:38;;;;;;;;;;;4.50;99.90;;;3.10;100.00;96938.66;10483787;28;1819;-78
2021/11/18 18:49:41;;;;;;;;;;;4.40;99.90;;;3.06;100.00;96940.09;10468598;28;2244;-77
2021/11/18 18:54:47;;;;;;;;;;;4.40;99.90;;;3.10;100.00;96933.34;10480556;28;1957;-77
2021/11/18 18:59:50;;;;;;;;;;;4.40;99.90;;;3.11;100.00;96940.31;10478405;28;1343;-77
2021/11/18 19:04:53;;;;;;;;;;;4.40;99.90;;;3.15;100.00;96944.22;10474885;28;1489;-78
2021/11/18 19:09:56;;;;;;;;;;;4.40;99.90;;;3.11;100.00;96948.28;10472676;28;1935;-78
2021/11/18 19:14:59;;;;;;;;;;;4.40;99.90;;;3.10;100.00;96941.31;10485167;28;1898;-77
2021/11/18 19:20:02;;;;;;;;;;;4.30;99.90;;;3.12;100.00;96947.28;10487733;28;1950;-77
2021/11/18 19:25:05;;;;;;;;;;;4.30;99.90;;;3.16;100.00;96950.34;10489126;28;1965;-77
2021/11/18 19:35:31;;;;;;;;;;;4.40;99.90;;;3.00;100.00;96956.00;10489916;28;1958;-79
2021/11/18 19:40:35;;;;;;;;;;;4.30;99.90;;;2.92;100.00;96964.94;10495773;28;1740;-78
2021/11/18 19:45:38;;;;;;;;;;;4.30;99.90;;;2.92;100.00;96965.75;10481814;28;1854;-77
2021/11/18 19:50:43;;;;;;;;;;;4.20;99.90;;;2.92;100.00;96955.13;10484855;28;1933;-77
2021/11/18 19:55:46;;;;;;;;;;;4.20;99.90;;;2.88;100.00;96964.53;10466448;28;2121;-78
2021/11/18 20:00:49;;;;;;;;;;;4.10;99.90;;;2.86;100.00;96971.03;10459156;28;1890;-78
2021/11/18 20:05:52;;;;;;;;;;;4.10;99.90;;;2.91;100.00;96963.31;10470667;28;2140;-77
2021/11/18 20:10:56;;;;;;;;;;;4.00;99.90;;;3.04;100.00;96958.06;10472028;28;1919;-77
2021/11/18 20:15:59;;;;;;;;;;;4.10;99.90;;;2.97;100.00;96967.84;10467759;28;1951;-77
2021/11/18 20:21:02;;;;;;;;;;;4.20;99.90;;;2.97;100.00;96965.19;10467377;28;1897;-78
2021/11/18 20:26:05;;;;;;;;;;;4.10;99.90;;;3.02;100.00;96965.41;10466903;28;1972;-77
2021/11/18 20:31:08;;;;;;;;;;;4.30;99.90;;;2.98;100.00;96985.41;10472073;28;1860;-78
2021/11/18 20:36:11;;;;;;;;;;;4.20;99.90;;;2.89;100.00;96983.94;10468683;28;1961;-78
2021/11/18 20:41:14;;;;;;;;;;;4.10;99.90;;;2.82;100.00;96991.03;10470772;28;1934;-78
2021/11/18 20:46:17;;;;;;;;;;;4.10;99.90;;;2.79;100.00;96980.78;10468069;28;1426;-78
2021/11/18 20:51:20;;;;;;;;;;;4.00;99.90;;;2.83;100.00;96969.59;10473275;28;1943;-77
2021/11/18 20:56:24;;;;;;;;;;;4.00;99.90;;;2.86;100.00;96971.03;10473389;28;2021;-76
2021/11/18 21:01:27;;;;;;;;;;;4.00;99.90;;;2.77;100.00;96972.22;10469851;28;1914;-78
2021/11/18 21:06:30;;;;;;;;;;;4.00;99.90;;;2.77;100.00;96978.34;10477001;28;1882;-78
2021/11/18 21:11:34;;;;;;;;;;;4.00;99.90;;;2.72;100.00;97002.00;10471145;28;1937;-77
2021/11/18 21:16:37;;;;;;;;;;;3.90;99.90;;;2.68;100.00;97004.22;10467744;28;1894;-77
2021/11/18 21:21:42;;;;;;;;;;;3.90;99.90;;;2.68;100.00;97006.88;10475461;28;1953;-76
2021/11/18 21:26:44;;;;;;;;;;;3.90;99.90;;;2.65;100.00;97007.25;10473763;28;1880;-77
2021/11/18 21:31:47;;;;;;;;;;;3.80;99.90;;;2.65;100.00;96991.34;10461344;28;1921;-78
2021/11/18 21:36:50;;;;;;;;;;;3.80;99.90;;;2.56;100.00;96997.81;10471864;28;1930;-78
2021/11/18 21:41:54;;;;;;;;;;;3.80;99.90;;;2.60;100.00;96999.06;10471405;28;1861;-77
2021/11/18 21:46:58;;;;;;;;;;;3.80;99.90;;;2.65;100.00;97006.44;10466610;28;1898;-78
2021/11/18 21:52:01;;;;;;;;;;;3.80;99.90;;;2.61;100.00;97006.03;10455687;28;1850;-77
2021/11/18 21:57:04;;;;;;;;;;;3.90;99.90;;;2.57;100.00;97007.41;10468247;28;1977;-78
2021/11/18 22:02:07;;;;;;;;;;;3.80;99.90;;;2.61;100.00;97006.03;10469425;28;1703;-77
2021/11/18 22:07:10;;;;;;;;;;;3.80;99.90;;;2.61;100.00;97007.88;10465764;28;1973;-77
2021/11/18 22:12:14;;;;;;;;;;;3.80;99.90;;;2.65;100.00;97014.41;10472314;28;2123;-78
2021/11/18 22:17:19;;;;;;;;;;;3.80;99.90;;;2.56;100.00;97008.44;10468782;28;1898;-77
2021/11/18 22:22:22;;;;;;;;;;;3.80;99.90;;;2.61;100.00;97006.03;10458948;28;1979;-77
2021/11/18 22:27:26;;;;;;;;;;;3.80;99.90;;;2.69;100.00;96994.44;10468621;28;2011;-77
2021/11/18 22:32:29;;;;;;;;;;;3.80;99.90;;;2.67;100.00;96994.63;10440060;28;2009;-75
2021/11/18 22:37:32;;;;;;;;;;;3.80;99.90;;;2.60;100.00;96983.13;10453858;28;2038;-77
2021/11/18 22:42:36;;;;;;;;;;;3.80;99.90;;;2.68;100.00;96993.63;10454821;28;2091;-76
2021/11/18 22:47:39;;;;;;;;;;;3.80;99.90;;;2.67;100.00;96984.00;10456075;28;2084;-77
2021/11/18 22:52:42;;;;;;;;;;;3.80;99.90;;;2.67;100.00;96986.66;10447671;28;2003;-76
2021/11/18 22:57:47;;;;;;;;;;;3.80;99.90;;;2.65;100.00;96970.09;10438722;28;2056;-76
2021/11/18 23:02:50;;;;;;;;;;;3.80;99.90;;;2.59;100.00;96973.53;10446301;28;2099;-77
2021/11/18 23:07:53;;;;;;;;;;;3.80;99.90;;;2.60;100.00;96979.66;10453499;28;2118;-77
2021/11/18 23:12:56;;;;;;;;;;;3.80;99.90;;;2.55;100.00;96990.88;10446577;28;2032;-77
2021/11/18 23:17:59;;;;;;;;;;;3.80;99.90;;;2.46;100.00;96985.88;10464425;28;2033;-77
2021/11/18 23:23:02;;;;;;;;;;;3.70;99.90;;;2.37;100.00;96978.06;10449805;28;2045;-77
2021/11/18 23:28:05;;;;;;;;;;;3.60;99.90;;;2.37;100.00;96987.88;10459553;28;2025;-77
2021/11/18 23:33:08;;;;;;;;;;;3.50;99.90;;;2.41;100.00;96983.78;10454108;28;1999;-77
2021/11/18 23:38:10;;;;;;;;;;;3.50;99.90;;;2.43;100.00;96977.31;10466794;28;1979;-79
2021/11/18 23:43:13;;;;;;;;;;;3.50;99.90;;;2.50;100.00;96981.84;10468658;28;2180;-78
2021/11/18 23:48:16;;;;;;;;;;;3.60;99.90;;;2.49;100.00;96973.06;10463073;28;2009;-77